Mabton, Washington
Current Conditions -  °F | °C
As of 8:53 PM on Thursday 25 Dec 2014 (Local Time) from KYKM Reporting Station
Clear Clear  
Wind Chill: 33°   Ceiling: Unl
Heat Index: 33°   Visibility: 10mi
Dew Point: 23°   Wind: 0mph
Humidity: 66%   Direction: NA
Pressure: 30.18"   Gusts: NA
Location:  46.21°N, 120°W
Report Text: KYKM 260453Z 00000KT 10SM CLR 01/M05 A3018 RMK AO2 SLP230 T00061050 $
Loading
Personal Weather Stations






























Interactive Weather Map New forecast layout! Learn more

10-Day Weather Forecast

Advertisements
Track Severe Weather on mobile